Página principal
METAR-TAF:

METAR-TAF

Aeroportos :

Aeroporto Internacional do Cairo

Cairo, Egipto

latitude: 30-08N, longitude: 031-24E, altura: 64 m

Observação actual do tempo

O boletim foi feito há 18 minutos, às 22:30 UTC
Vento 10 kt de nor-nordeste
Temperatura 25°C
Humidade 79%
Pressão 1016 hPa
Visibilidade 10 km ou mais
sem nuvens abaixo de 1500 metros e sem cumulonimbus

METAR: HECA 222230Z 02010KT CAVOK 25/21 Q1016 NOSIG

Hora: 00:48 (22:48 UTC)

Previsão

O boletim foi feito há 5 horas e 48 minutos, às 17:00 UTC
Previsão válida de 22 às 18 UTC a 23 às 24 UTC
Vento 10 kt de norte
Visibilidade 10 km ou mais
sem nuvens abaixo de 1500 metros e sem cumulonimbus
Temporariamente
de 23 às 02 UTC a 23 às 06 UTC
Vento 3 kt com direcção variável
Visibilidade: 4000 m
neblina

TAF: HECA 221700Z 2218/2324 01010KT CAVOK TEMPO 2302/2306 VRB03KT 4000 BR NSC

Observações e previsões do tempo de mais de 4000 aeroportos (mensagens METAR e TAF).

As estações disponíveis são os pontos amarelos e vermelhos sobre o mapa.

Mova o rato sobre o mapa para ver o nome da estação.

Depois clique no ponto para visualizar as observações e previsões meteorológicas.

Para alterar o mapa : clique nos botões verdes com uma cruz preta para aumentar o zoom; no botão verde com uma pitada de zoom; ou nas setas verdes para mapas adjacentes.


METAR-TAF: